Time;durP1;ratioP1;P1;durP2;ratioP2;P2;SDS_P1;SDS_P2;PMS_P1;PMS_P2;Temp;Humidity;BMP_temperature;BMP_pressure;BME280_temperature;BME280_humidity;BME280_pressure;Samples;Min_cycle;Max_cycle;Signal;HPM_P1;HPM_P2
2022/05/19 00:03:25;;;;;;;1999.90;999.90;;;18.40;99.90;;;;;;5038158;28;20461;-69
2022/05/19 00:05:52;;;;;;;1999.90;999.90;;;18.40;99.90;;;;;;5038736;28;20966;-70
2022/05/19 00:08:18;;;;;;;1999.90;999.90;;;18.30;99.90;;;;;;5051840;28;20954;-69
2022/05/19 00:10:45;;;;;;;1999.90;999.90;;;18.30;99.90;;;;;;5051309;28;20492;-70
2022/05/19 00:13:12;;;;;;;1999.90;999.90;;;18.50;99.90;;;;;;5040744;28;20462;-69
2022/05/19 00:15:40;;;;;;;1999.90;999.90;;;18.60;99.90;;;;;;5043894;28;20528;-70
2022/05/19 00:18:07;;;;;;;1999.90;999.90;;;18.80;99.90;;;;;;5035513;28;20474;-69
2022/05/19 00:20:33;;;;;;;1999.90;999.90;;;18.90;99.90;;;;;;5040375;28;20892;-69
2022/05/19 00:23:00;;;;;;;1999.90;999.90;;;19.00;99.90;;;;;;5037398;28;20946;-68
2022/05/19 00:25:27;;;;;;;1999.90;999.90;;;19.10;99.90;;;;;;5043400;28;20478;-70
2022/05/19 00:27:53;;;;;;;1999.90;999.90;;;19.20;99.90;;;;;;5032831;28;20471;-69
2022/05/19 00:30:20;;;;;;;1999.90;999.90;;;19.30;99.90;;;;;;5037935;28;20494;-69
2022/05/19 00:32:49;;;;;;;1999.90;999.90;;;19.30;99.90;;;;;;5038269;28;20468;-69
2022/05/19 00:35:16;;;;;;;1999.90;999.90;;;19.40;99.90;;;;;;5048916;28;20458;-69
2022/05/19 00:37:42;;;;;;;1999.90;999.90;;;19.40;99.90;;;;;;5047965;28;20494;-68
2022/05/19 00:40:10;;;;;;;1999.90;999.90;;;19.40;99.90;;;;;;5046823;28;21011;-69
2022/05/19 00:42:46;;;;;;;1999.90;999.90;;;19.30;99.90;;;;;;5043654;28;20486;-69
2022/05/19 00:45:15;;;;;;;1999.90;999.90;;;19.20;99.90;;;;;;5043972;28;20484;-69
2022/05/19 00:47:47;;;;;;;1999.90;999.90;;;19.00;99.90;;;;;;5049169;28;20485;-70
2022/05/19 00:50:22;;;;;;;1999.90;999.90;;;18.90;99.90;;;;;;5048273;28;20477;-69
2022/05/19 00:52:52;;;;;;;1999.90;999.90;;;18.80;99.90;;;;;;5038679;28;21221;-70
2022/05/19 00:55:22;;;;;;;1999.90;999.90;;;18.70;99.90;;;;;;5043182;28;20508;-69
2022/05/19 00:57:56;;;;;;;1999.90;999.90;;;18.70;99.90;;;;;;5041285;28;20998;-69
2022/05/19 01:00:24;;;;;;;1999.90;999.90;;;18.60;99.90;;;;;;5040050;28;21368;-69
2022/05/19 01:02:53;;;;;;;1999.90;999.90;;;18.60;99.90;;;;;;5037368;28;20538;-69
2022/05/19 01:05:26;;;;;;;1999.90;999.90;;;18.60;99.90;;;;;;5038850;28;20463;-69
2022/05/19 01:07:57;;;;;;;1999.90;999.90;;;18.50;99.90;;;;;;5041525;28;20463;-69
2022/05/19 01:10:24;;;;;;;1999.90;999.90;;;18.90;99.90;;;;;;5049538;28;20485;-69
2022/05/19 01:12:52;;;;;;;1999.90;999.90;;;18.60;99.90;;;;;;5037865;28;20459;-68
2022/05/19 01:15:19;;;;;;;1999.90;999.90;;;18.50;99.90;;;;;;5045314;28;20489;-69
2022/05/19 01:17:47;;;;;;;1999.90;999.90;;;18.60;99.90;;;;;;5037501;28;20458;-70
2022/05/19 01:20:17;;;;;;;1999.90;999.90;;;18.50;99.90;;;;;;5044542;28;20508;-69
2022/05/19 01:22:53;;;;;;;1999.90;999.90;;;18.30;99.90;;;;;;5048203;28;20505;-69
2022/05/19 01:25:27;;;;;;;1999.90;999.90;;;18.10;99.90;;;;;;5048247;28;20468;-68
2022/05/19 01:27:55;;;;;;;1999.90;999.90;;;18.10;99.90;;;;;;5041336;28;20462;-69
2022/05/19 01:30:22;;;;;;;1999.90;999.90;;;17.90;99.90;;;;;;5051054;28;20478;-69
2022/05/19 01:32:48;;;;;;;1999.90;999.90;;;17.70;99.90;;;;;;5051228;28;21023;-69
2022/05/19 01:35:15;;;;;;;1999.90;999.90;;;17.60;99.90;;;;;;5051930;28;20821;-69
2022/05/19 01:37:42;;;;;;;1999.90;999.90;;;17.50;99.90;;;;;;5050028;28;21854;-69
2022/05/19 01:40:25;;;;;;;1999.90;999.90;;;17.50;99.90;;;;;;5049224;28;20479;-69
2022/05/19 01:49:43;;;;;;;1999.90;999.90;;;17.20;99.90;;;;;;5022393;28;20459;-69
2022/05/19 01:52:15;;;;;;;1999.90;999.90;;;17.10;99.90;;;;;;5025147;28;20993;-69
2022/05/19 01:54:49;;;;;;;1999.90;999.90;;;17.20;99.90;;;;;;5034977;28;20466;-70
2022/05/19 01:57:20;;;;;;;1999.90;999.90;;;17.20;99.90;;;;;;5046645;28;20458;-69
2022/05/19 01:59:55;;;;;;;1999.90;999.90;;;17.10;99.90;;;;;;5043741;28;20958;-68
2022/05/19 02:02:27;;;;;;;1999.90;999.90;;;17.10;99.90;;;;;;5049254;28;20470;-69
2022/05/19 02:05:03;;;;;;;1999.90;999.90;;;17.00;99.90;;;;;;5044850;28;20459;-69
2022/05/19 02:07:34;;;;;;;1999.90;999.90;;;16.90;99.90;;;;;;5048392;28;20462;-69
2022/05/19 02:10:06;;;;;;;1999.90;999.90;;;17.00;99.90;;;;;;5049427;28;20900;-69
2022/05/19 02:12:34;;;;;;;1999.90;999.90;;;16.90;99.90;;;;;;5046852;28;20460;-69
2022/05/19 02:15:04;;;;;;;1999.90;999.90;;;16.60;99.90;;;;;;5046014;28;20946;-70
2022/05/19 02:17:33;;;;;;;1999.90;999.90;;;16.70;99.90;;;;;;5049908;28;20812;-69
2022/05/19 02:20:05;;;;;;;1999.90;999.90;;;16.70;99.90;;;;;;5050577;28;20462;-69
2022/05/19 02:22:36;;;;;;;1999.90;999.90;;;16.70;99.90;;;;;;5050744;28;20481;-69
2022/05/19 02:25:10;;;;;;;1999.90;999.90;;;16.60;99.90;;;;;;5050058;28;20462;-69
2022/05/19 02:27:40;;;;;;;1999.90;999.90;;;16.70;99.90;;;;;;5051755;28;20462;-69
2022/05/19 02:30:11;;;;;;;1999.90;999.90;;;16.80;99.90;;;;;;5049584;28;20486;-68
2022/05/19 02:32:38;;;;;;;1999.90;999.90;;;16.80;99.90;;;;;;5049964;28;20965;-69
2022/05/19 02:35:08;;;;;;;1999.90;999.90;;;16.70;99.90;;;;;;5050598;28;20459;-69
2022/05/19 02:37:36;;;;;;;1999.90;999.90;;;16.80;99.90;;;;;;5048760;28;20485;-69
2022/05/19 02:40:03;;;;;;;1999.90;999.90;;;16.50;99.90;;;;;;5050418;28;20463;-69
2022/05/19 02:42:30;;;;;;;1999.90;999.90;;;16.50;99.90;;;;;;5046977;28;20486;-69
2022/05/19 02:44:57;;;;;;;1999.90;999.90;;;16.40;99.90;;;;;;5049775;28;20458;-69
2022/05/19 02:47:23;;;;;;;1999.90;999.90;;;16.40;99.90;;;;;;5048886;28;20524;-69
2022/05/19 02:49:50;;;;;;;1999.90;999.90;;;16.30;99.90;;;;;;5043712;28;20458;-69
2022/05/19 02:52:18;;;;;;;1999.90;999.90;;;16.30;99.90;;;;;;5049847;28;20454;-69
2022/05/19 02:54:45;;;;;;;1999.90;999.90;;;16.30;99.90;;;;;;5049859;28;21049;-69
2022/05/19 02:57:12;;;;;;;1999.90;999.90;;;16.30;99.90;;;;;;5048196;28;20572;-68
2022/05/19 02:59:38;;;;;;;1999.90;999.90;;;16.30;99.90;;;;;;5048783;28;20457;-69
2022/05/19 03:02:05;;;;;;;1999.90;999.90;;;16.30;99.90;;;;;;5049111;28;20485;-69
2022/05/19 03:04:32;;;;;;;1999.90;999.90;;;16.30;99.90;;;;;;5048673;28;20523;-69
2022/05/19 03:06:59;;;;;;;1999.90;999.90;;;16.50;99.90;;;;;;5047451;28;21191;-69
2022/05/19 03:09:27;;;;;;;1999.90;999.90;;;16.50;99.90;;;;;;5049102;28;20848;-69
2022/05/19 03:11:53;;;;;;;1999.90;999.90;;;16.40;99.90;;;;;;5043743;28;21063;-69
2022/05/19 03:14:20;;;;;;;1999.90;999.90;;;16.30;99.90;;;;;;5049205;28;20868;-69
2022/05/19 03:16:46;;;;;;;1999.90;999.90;;;16.30;99.90;;;;;;5049317;28;20515;-69
2022/05/19 03:19:13;;;;;;;1999.90;999.90;;;16.10;99.90;;;;;;5049810;28;20489;-69
2022/05/19 03:21:41;;;;;;;1999.90;999.90;;;16.20;99.90;;;;;;5047651;28;20519;-67
2022/05/19 03:24:08;;;;;;;1999.90;999.90;;;16.30;99.90;;;;;;5049053;28;20958;-69
2022/05/19 03:26:36;;;;;;;1999.90;999.90;;;16.30;99.90;;;;;;5047772;28;20511;-69
2022/05/19 03:29:04;;;;;;;1999.90;999.90;;;16.20;99.90;;;;;;5049407;28;20454;-69
2022/05/19 03:31:31;;;;;;;1999.90;999.90;;;16.40;99.90;;;;;;5047687;28;20499;-68
2022/05/19 03:33:57;;;;;;;1999.90;999.90;;;16.50;99.90;;;;;;5049544;28;20592;-70
2022/05/19 03:36:24;;;;;;;1999.90;999.90;;;16.50;99.90;;;;;;5047506;28;20454;-69
2022/05/19 03:38:51;;;;;;;1999.90;999.90;;;16.50;99.90;;;;;;5048711;28;20995;-69
2022/05/19 03:41:17;;;;;;;1999.90;999.90;;;16.60;99.90;;;;;;5048384;28;20536;-69
2022/05/19 03:43:45;;;;;;;1999.90;999.90;;;16.70;99.90;;;;;;5048290;28;20478;-69
2022/05/19 03:46:12;;;;;;;1999.90;999.90;;;16.80;99.90;;;;;;5048675;28;21012;-67
2022/05/19 03:48:40;;;;;;;1999.90;999.90;;;16.70;99.90;;;;;;5048934;28;20474;-70
2022/05/19 03:51:10;;;;;;;1999.90;999.90;;;16.80;99.90;;;;;;5048948;28;20478;-69
2022/05/19 03:53:37;;;;;;;1999.90;999.90;;;16.70;99.90;;;;;;5049206;28;20459;-69
2022/05/19 03:56:04;;;;;;;1999.90;999.90;;;16.70;99.90;;;;;;5049859;28;20466;-69
2022/05/19 03:58:31;;;;;;;1999.90;999.90;;;16.80;99.90;;;;;;5049102;28;20468;-69
2022/05/19 04:00:59;;;;;;;1999.90;999.90;;;16.80;99.90;;;;;;5049551;28;20486;-70
2022/05/19 04:03:26;;;;;;;1999.90;999.90;;;16.70;99.90;;;;;;5047955;28;21005;-69
2022/05/19 04:05:52;;;;;;;1999.90;999.90;;;16.70;99.90;;;;;;5048702;28;21043;-69
2022/05/19 04:08:19;;;;;;;1999.90;999.90;;;16.70;99.90;;;;;;5048226;28;20467;-69
2022/05/19 04:10:47;;;;;;;1999.90;999.90;;;16.70;99.90;;;;;;5044040;28;20513;-69
2022/05/19 04:13:14;;;;;;;1999.90;999.90;;;16.80;99.90;;;;;;5051660;28;20446;-69
2022/05/19 04:15:40;;;;;;;1999.90;999.90;;;16.90;99.90;;;;;;5049678;28;20501;-69
2022/05/19 04:18:09;;;;;;;1999.90;999.90;;;16.90;99.90;;;;;;5048696;28;20511;-69
2022/05/19 04:20:35;;;;;;;1999.90;999.90;;;17.10;99.90;;;;;;5048175;28;20491;-69
2022/05/19 04:23:03;;;;;;;1999.90;999.90;;;17.10;99.90;;;;;;5049402;28;20478;-69
2022/05/19 04:25:30;;;;;;;1999.90;999.90;;;17.10;99.90;;;;;;5048649;28;21031;-69
2022/05/19 04:27:57;;;;;;;1999.90;999.90;;;17.20;99.90;;;;;;5044093;28;20462;-70
2022/05/19 04:30:24;;;;;;;1999.90;999.90;;;17.30;99.90;;;;;;5049017;28;20539;-69
2022/05/19 04:32:50;;;;;;;1999.90;999.90;;;17.40;99.90;;;;;;5049328;28;20907;-69
2022/05/19 04:35:19;;;;;;;1999.90;999.90;;;17.50;99.90;;;;;;5049091;28;20466;-68
2022/05/19 04:37:46;;;;;;;1999.90;999.90;;;17.60;99.90;;;;;;5048615;28;20454;-69
2022/05/19 04:40:16;;;;;;;1999.90;999.90;;;17.50;99.90;;;;;;5049432;28;20540;-70
2022/05/19 04:42:43;;;;;;;1999.90;999.90;;;17.70;99.90;;;;;;5049195;28;20540;-70
2022/05/19 04:45:10;;;;;;;1999.90;999.90;;;17.60;99.90;;;;;;5050789;28;20520;-69
2022/05/19 04:47:37;;;;;;;1999.90;999.90;;;17.70;99.90;;;;;;5048687;28;21039;-69
2022/05/19 04:50:04;;;;;;;1999.90;999.90;;;17.80;99.90;;;;;;5050219;28;20466;-68
2022/05/19 04:52:32;;;;;;;1999.90;999.90;;;17.80;99.90;;;;;;5049365;28;20539;-70
2022/05/19 04:54:59;;;;;;;1999.90;999.90;;;17.80;99.90;;;;;;5043933;28;20835;-69
2022/05/19 04:57:26;;;;;;;1999.90;999.90;;;18.00;99.90;;;;;;5048507;28;20466;-69
2022/05/19 04:59:53;;;;;;;1999.90;999.90;;;18.10;99.90;;;;;;5048610;28;20885;-69
2022/05/19 05:02:20;;;;;;;1999.90;999.90;;;18.10;99.90;;;;;;5049267;23;20499;-67
2022/05/19 05:04:46;;;;;;;1999.90;999.90;;;18.40;99.90;;;;;;5009180;28;20483;-66
2022/05/19 05:07:13;;;;;;;1999.90;999.90;;;18.50;99.90;;;;;;5009384;28;20460;-68
2022/05/19 05:09:41;;;;;;;1999.90;999.90;;;18.50;99.90;;;;;;5008119;28;20507;-67
2022/05/19 05:12:09;;;;;;;1999.90;999.90;;;18.40;99.90;;;;;;5009422;28;20480;-68
2022/05/19 05:14:36;;;;;;;1999.90;999.90;;;18.50;99.90;;;;;;5008056;28;20467;-66
2022/05/19 05:17:03;;;;;;;1999.90;999.90;;;18.60;99.90;;;;;;5009536;28;20456;-65
2022/05/19 05:19:29;;;;;;;1999.90;999.90;;;18.80;99.90;;;;;;5008011;28;21157;-67
2022/05/19 05:22:00;;;;;;;1999.90;999.90;;;19.00;99.90;;;;;;5011009;28;20491;-68
2022/05/19 05:24:27;;;;;;;1999.90;999.90;;;19.40;99.90;;;;;;5012367;28;20472;-66
2022/05/19 05:26:55;;;;;;;1999.90;999.90;;;19.40;99.90;;;;;;5011692;28;21026;-67
2022/05/19 05:29:22;;;;;;;1999.90;999.90;;;19.40;99.90;;;;;;5012213;28;20464;-67
2022/05/19 05:31:48;;;;;;;1999.90;999.90;;;19.50;99.90;;;;;;5012160;28;20476;-67
2022/05/19 05:34:15;;;;;;;1999.90;999.90;;;19.80;99.90;;;;;;5010231;28;20452;-68
2022/05/19 05:36:42;;;;;;;1999.90;999.90;;;20.00;99.90;;;;;;5012179;28;20468;-66
2022/05/19 05:39:09;;;;;;;1999.90;999.90;;;20.30;99.90;;;;;;5012620;28;20468;-67
2022/05/19 05:41:35;;;;;;;1999.90;999.90;;;20.60;99.90;;;;;;5012245;28;20487;-68
2022/05/19 05:44:03;;;;;;;1999.90;999.90;;;20.90;99.90;;;;;;5012736;28;20488;-67
2022/05/19 05:46:30;;;;;;;1999.90;999.90;;;21.00;99.90;;;;;;5010493;28;20534;-66
2022/05/19 05:48:57;;;;;;;1999.90;999.90;;;21.10;99.90;;;;;;5012673;28;20472;-66
2022/05/19 05:51:23;;;;;;;1999.90;999.90;;;21.20;99.90;;;;;;5011700;28;20927;-65
2022/05/19 05:53:50;;;;;;;1999.90;999.90;;;21.50;99.90;;;;;;5011152;28;20530;-65
2022/05/19 05:56:19;;;;;;;1999.90;999.90;;;21.70;99.90;;;;;;5012724;28;20464;-66
2022/05/19 05:58:46;;;;;;;1999.90;999.90;;;21.70;99.90;;;;;;5011415;28;20456;-65
2022/05/19 06:01:17;;;;;;;1999.90;999.90;;;22.00;99.90;;;;;;5011530;28;20469;-66
2022/05/19 06:03:47;;;;;;;1999.90;999.90;;;22.00;99.90;;;;;;5011083;28;20533;-67
2022/05/19 06:06:14;;;;;;;1999.90;999.90;;;21.90;99.90;;;;;;5012341;28;20468;-68
2022/05/19 06:08:40;;;;;;;1999.90;999.90;;;22.10;99.90;;;;;;5010122;28;20904;-65
2022/05/19 06:11:08;;;;;;;1999.90;999.90;;;22.20;99.90;;;;;;5012246;28;20816;-65
2022/05/19 06:13:35;;;;;;;1999.90;999.90;;;22.40;99.90;;;;;;5010527;28;20466;-65
2022/05/19 06:16:02;;;;;;;1999.90;999.90;;;22.60;99.90;;;;;;5006122;28;20467;-66
2022/05/19 06:18:30;;;;;;;1999.90;999.90;;;22.80;99.90;;;;;;5010951;28;20956;-65
2022/05/19 06:20:57;;;;;;;1999.90;999.90;;;22.70;99.90;;;;;;5012095;28;20464;-65
2022/05/19 06:23:23;;;;;;;1999.90;999.90;;;22.90;99.90;;;;;;5011566;28;20541;-67
2022/05/19 06:25:50;;;;;;;1999.90;999.90;;;23.00;99.90;;;;;;5010725;28;20467;-65
2022/05/19 06:28:17;;;;;;;1999.90;999.90;;;23.10;99.90;;;;;;5010950;28;20530;-66
2022/05/19 06:30:45;;;;;;;1999.90;999.90;;;23.30;99.90;;;;;;5010607;28;20476;-65
2022/05/19 06:33:12;;;;;;;1999.90;999.90;;;23.60;99.90;;;;;;5010294;28;20480;-65
2022/05/19 06:35:41;;;;;;;1999.90;999.90;;;23.30;99.90;;;;;;5010573;28;20467;-65
2022/05/19 06:38:08;;;;;;;1999.90;999.90;;;23.30;99.90;;;;;;5007106;28;20483;-65
2022/05/19 06:40:35;;;;;;;1999.90;999.90;;;23.40;99.90;;;;;;5013576;28;20534;-65
2022/05/19 06:43:03;;;;;;;1999.90;999.90;;;23.60;99.90;;;;;;5012468;28;20859;-65
2022/05/19 06:45:30;;;;;;;1999.90;999.90;;;24.10;99.90;;;;;;5012931;28;20487;-65
2022/05/19 06:47:57;;;;;;;1999.90;999.90;;;24.50;99.90;;;;;;5013149;28;20538;-65
2022/05/19 06:50:25;;;;;;;1999.90;999.90;;;24.80;99.90;;;;;;5013120;28;20448;-65
2022/05/19 06:52:55;;;;;;;1999.90;999.90;;;24.70;99.90;;;;;;5013030;28;20468;-65
2022/05/19 06:55:23;;;;;;;1999.90;999.90;;;24.70;99.90;;;;;;5012826;28;20819;-65
2022/05/19 06:57:51;;;;;;;1999.90;999.90;;;24.90;99.90;;;;;;5013220;28;20455;-65
2022/05/19 07:00:22;;;;;;;1999.90;999.90;;;25.40;99.90;;;;;;5012565;28;21002;-66
2022/05/19 07:02:50;;;;;;;1999.90;999.90;;;25.10;99.90;;;;;;5012221;28;20546;-65
2022/05/19 07:05:18;;;;;;;1999.90;999.90;;;25.30;99.90;;;;;;5011854;28;20506;-66
2022/05/19 07:07:46;;;;;;;1999.90;999.90;;;25.30;99.90;;;;;;5012936;28;20455;-66
2022/05/19 07:10:15;;;;;;;1999.90;999.90;;;25.50;99.90;;;;;;5013131;28;20452;-65
2022/05/19 07:12:43;;;;;;;1999.90;999.90;;;25.60;99.90;;;;;;5012093;28;20494;-65
2022/05/19 07:15:11;;;;;;;1999.90;999.90;;;25.60;99.90;;;;;;5012265;28;20452;-65
2022/05/19 07:17:38;;;;;;;1999.90;999.90;;;25.80;99.90;;;;;;5012432;28;21189;-65
2022/05/19 07:22:51;;;;;;;1999.90;999.90;;;25.90;99.90;;;;;;5012016;28;20507;-65
2022/05/19 07:25:19;;;;;;;1999.90;999.90;;;25.90;99.90;;;;;;5012175;28;20456;-66
2022/05/19 07:27:46;;;;;;;1999.90;999.90;;;25.80;99.90;;;;;;5012744;28;20868;-65
2022/05/19 07:30:13;;;;;;;1999.90;999.90;;;25.90;99.90;;;;;;5012657;28;20452;-66
2022/05/19 07:32:41;;;;;;;1999.90;999.90;;;26.00;99.90;;;;;;5004863;28;21042;-66
2022/05/19 07:35:09;;;;;;;1999.90;999.90;;;26.40;99.90;;;;;;5006043;28;21312;-65
2022/05/19 07:37:36;;;;;;;1999.90;999.90;;;26.60;98.20;;;;;;5010116;28;20468;-66
2022/05/19 07:40:04;;;;;;;1999.90;999.90;;;26.90;98.60;;;;;;5010457;28;20518;-65
2022/05/19 07:42:32;;;;;;;1999.90;999.90;;;27.10;97.70;;;;;;5008811;28;21015;-66
2022/05/19 07:44:59;;;;;;;1999.90;999.90;;;26.90;97.30;;;;;;5002670;28;21063;-66
2022/05/19 07:47:26;;;;;;;1999.90;999.90;;;27.00;98.00;;;;;;5009128;28;20472;-65
2022/05/19 07:49:56;;;;;;;1999.90;999.90;;;27.30;98.10;;;;;;5003266;28;20511;-66
2022/05/19 07:52:23;;;;;;;1999.90;999.90;;;27.50;97.60;;;;;;5008646;28;20924;-66
2022/05/19 07:54:50;;;;;;;1999.90;999.90;;;27.70;95.90;;;;;;5004687;28;20491;-65
2022/05/19 07:57:18;;;;;;;1999.90;999.90;;;27.90;96.30;;;;;;5007046;28;20448;-66
2022/05/19 07:59:46;;;;;;;1999.90;999.90;;;28.10;95.90;;;;;;5011706;28;20452;-66
2022/05/19 08:02:13;;;;;;;1999.90;999.90;;;28.30;96.70;;;;;;5009842;28;20550;-66
2022/05/19 08:04:40;;;;;;;1999.90;999.90;;;28.70;95.20;;;;;;5006824;28;20594;-66
2022/05/19 08:07:07;;;;;;;1999.90;999.90;;;28.80;94.60;;;;;;5004747;28;20522;-65
2022/05/19 08:15:34;;;;;;;1999.90;999.90;;;28.80;94.70;;;;;;5007225;28;20959;-66
2022/05/19 08:17:55;;;;;;;1999.90;999.90;;;28.50;95.70;;;;;;5005650;28;20963;-66
2022/05/19 08:20:22;;;;;;;1999.90;999.90;;;28.30;95.10;;;;;;5010512;28;20884;-66
2022/05/19 08:22:49;;;;;;;1999.90;999.90;;;28.20;95.20;;;;;;5003176;28;20488;-67
2022/05/19 08:25:16;;;;;;;1999.90;999.90;;;28.20;96.20;;;;;;5011955;28;20480;-65
2022/05/19 08:27:44;;;;;;;1999.90;999.90;;;28.00;96.20;;;;;;5011790;28;20456;-65
2022/05/19 08:30:14;;;;;;;1999.90;999.90;;;28.00;96.10;;;;;;5010656;28;20472;-66
2022/05/19 08:32:40;;;;;;;1999.90;999.90;;;28.10;94.60;;;;;;5004779;28;20468;-64
2022/05/19 08:35:08;;;;;;;1999.90;999.90;;;28.10;94.10;;;;;;5010798;28;20464;-66
2022/05/19 08:37:36;;;;;;;1999.90;999.90;;;28.00;95.60;;;;;;5007772;28;20463;-65
2022/05/19 08:40:02;;;;;;;1999.90;999.90;;;28.10;95.20;;;;;;5008521;28;20468;-66
2022/05/19 08:42:34;;;;;;;1999.90;999.90;;;27.90;94.80;;;;;;5008551;28;20909;-66
2022/05/19 08:45:04;;;;;;;1999.90;999.90;;;28.20;94.10;;;;;;5009796;28;20518;-65
2022/05/19 08:47:34;;;;;;;1999.90;999.90;;;28.20;93.50;;;;;;5008952;28;20467;-66
2022/05/19 08:50:04;;;;;;;1999.90;999.90;;;28.40;92.20;;;;;;5009802;28;20499;-67
2022/05/19 08:52:38;;;;;;;1999.90;999.90;;;28.40;91.30;;;;;;5009466;28;20488;-67
2022/05/19 08:55:06;;;;;;;1999.90;999.90;;;28.00;88.70;;;;;;5007128;28;20490;-65
2022/05/19 08:57:38;;;;;;;1999.90;999.90;;;27.90;89.80;;;;;;5014953;28;20460;-65
2022/05/19 09:00:09;;;;;;;1999.90;999.90;;;27.90;89.50;;;;;;5015032;28;20491;-65
2022/05/19 09:02:42;;;;;;;1999.90;999.90;;;27.60;89.60;;;;;;5012037;28;20908;-65
2022/05/19 09:05:34;;;;;;;1999.90;999.90;;;27.80;89.60;;;;;;5014619;28;20538;-66
2022/05/19 09:08:11;;;;;;;1999.90;999.90;;;27.60;89.10;;;;;;5014622;28;20479;-65
2022/05/19 09:10:53;;;;;;;1999.90;999.90;;;27.50;90.30;;;;;;5012873;28;20491;-65
2022/05/19 09:13:32;;;;;;;1999.90;999.90;;;27.20;90.80;;;;;;5012342;28;20941;-65
2022/05/19 09:16:00;;;;;;;1999.90;999.90;;;27.30;89.60;;;;;;5013460;28;21022;-66
2022/05/19 09:18:34;;;;;;;1999.90;999.90;;;27.40;90.70;;;;;;5006950;28;20465;-66
2022/05/19 09:21:03;;;;;;;1999.90;999.90;;;27.40;90.50;;;;;;5011448;28;20472;-66
2022/05/19 09:23:30;;;;;;;1999.90;999.90;;;27.70;90.20;;;;;;5012397;28;20594;-64
2022/05/19 09:26:05;;;;;;;1999.90;999.90;;;28.00;88.80;;;;;;5012694;28;20464;-65
2022/05/19 09:28:32;;;;;;;1999.90;999.90;;;28.40;90.20;;;;;;5009534;28;20459;-66
2022/05/19 09:30:59;;;;;;;1999.90;999.90;;;28.40;88.20;;;;;;5012485;28;20517;-65
2022/05/19 09:33:34;;;;;;;1999.90;999.90;;;28.40;87.00;;;;;;5012537;28;20551;-66
2022/05/19 09:36:01;;;;;;;1999.90;999.90;;;28.40;88.40;;;;;;5012121;28;20459;-65
2022/05/19 09:38:33;;;;;;;1999.90;999.90;;;28.30;88.00;;;;;;5014374;28;20452;-66
2022/05/19 09:41:03;;;;;;;1999.90;999.90;;;28.40;86.00;;;;;;5014601;28;20473;-66
2022/05/19 09:43:33;;;;;;;1999.90;999.90;;;28.60;87.10;;;;;;5012978;28;20566;-65
2022/05/19 09:46:09;;;;;;;1999.90;999.90;;;28.60;85.60;;;;;;5010847;28;20956;-65
2022/05/19 09:48:42;;;;;;;1999.90;999.90;;;28.60;85.60;;;;;;5012167;28;20475;-65
2022/05/19 09:51:11;;;;;;;1999.90;999.90;;;28.60;82.40;;;;;;5014443;28;20475;-66
2022/05/19 09:53:41;;;;;;;1999.90;999.90;;;29.00;83.20;;;;;;5014257;28;20444;-66
2022/05/19 09:56:11;;;;;;;1999.90;999.90;;;29.10;83.10;;;;;;5014085;28;20873;-66
2022/05/19 09:58:42;;;;;;;1999.90;999.90;;;29.10;80.00;;;;;;5013289;28;20511;-66
2022/05/19 10:01:17;;;;;;;1999.90;999.90;;;29.00;80.10;;;;;;5014091;28;20452;-66
2022/05/19 10:03:50;;;;;;;1999.90;999.90;;;28.90;79.80;;;;;;5010983;28;20491;-66
2022/05/19 10:06:18;;;;;;;1999.90;999.90;;;28.90;78.80;;;;;;5011749;28;20471;-66
2022/05/19 10:08:46;;;;;;;1999.90;999.90;;;28.80;79.60;;;;;;5009721;28;20468;-66
2022/05/19 10:11:23;;;;;;;1999.90;999.90;;;28.60;81.10;;;;;;5012365;28;20873;-66
2022/05/19 10:13:55;;;;;;;1999.90;999.90;;;28.70;78.80;;;;;;5009707;28;20850;-66
2022/05/19 10:16:32;;;;;;;1999.90;999.90;;;28.70;79.70;;;;;;5008534;28;20548;-66
2022/05/19 10:19:17;;;;;;;1999.90;999.90;;;29.00;77.60;;;;;;5011143;28;20464;-66
2022/05/19 10:22:08;;;;;;;1999.90;999.90;;;28.90;77.20;;;;;;5010987;28;20492;-66
2022/05/19 10:25:07;;;;;;;1999.90;999.90;;;29.00;77.90;;;;;;5002412;28;21004;-66
2022/05/19 10:33:30;;;;;;;1999.90;999.90;;;29.50;77.80;;;;;;5010098;28;20459;-66
2022/05/19 10:36:12;;;;;;;1999.90;999.90;;;29.40;76.20;;;;;;5011372;28;20467;-66
2022/05/19 10:38:46;;;;;;;1999.90;999.90;;;29.30;77.10;;;;;;5009835;28;20464;-66
2022/05/19 10:41:22;;;;;;;1999.90;999.90;;;29.40;78.20;;;;;;5010737;28;20464;-66
2022/05/19 10:44:11;;;;;;;1999.90;999.90;;;29.40;75.60;;;;;;5010039;28;20963;-66
2022/05/19 10:46:51;;;;;;;1999.90;999.90;;;29.30;75.80;;;;;;5010953;28;20459;-67
2022/05/19 10:49:59;;;;;;;1999.90;999.90;;;29.40;77.00;;;;;;5011603;28;20514;-66
2022/05/19 10:52:39;;;;;;;1999.90;999.90;;;29.50;76.40;;;;;;4991293;28;20491;-65
2022/05/19 10:55:13;;;;;;;1999.90;999.90;;;29.40;75.10;;;;;;5008649;28;20517;-66
2022/05/19 10:57:56;;;;;;;1999.90;999.90;;;29.30;74.80;;;;;;5009404;28;20884;-65
2022/05/19 11:00:32;;;;;;;1999.90;999.90;;;29.50;75.20;;;;;;5007460;28;20466;-66
2022/05/19 11:03:31;;;;;;;1999.90;999.90;;;29.20;73.30;;;;;;5033626;23;20565;-70
2022/05/19 11:06:10;;;;;;;1999.90;999.90;;;29.20;76.40;;;;;;5011793;28;20542;-71
2022/05/19 11:08:52;;;;;;;1999.90;999.90;;;29.50;76.30;;;;;;5010795;28;20494;-70
2022/05/19 11:11:24;;;;;;;1999.90;999.90;;;29.30;75.00;;;;;;5007675;28;20460;-71
2022/05/19 11:14:05;;;;;;;1999.90;999.90;;;29.60;76.00;;;;;;4991814;28;20453;-70
2022/05/19 11:16:40;;;;;;;1999.90;999.90;;;29.70;75.70;;;;;;4991987;28;20959;-69
2022/05/19 11:19:15;;;;;;;1999.90;999.90;;;29.80;75.90;;;;;;4985078;28;20457;-71
2022/05/19 11:21:47;;;;;;;1999.90;999.90;;;29.70;75.50;;;;;;4990422;28;20484;-71
2022/05/19 11:24:22;;;;;;;1999.90;999.90;;;29.70;76.80;;;;;;4989941;28;20473;-70
2022/05/19 11:26:56;;;;;;;1999.90;999.90;;;29.40;73.90;;;;;;4990754;28;20558;-70
2022/05/19 11:29:31;;;;;;;1999.90;999.90;;;29.60;76.20;;;;;;4991281;28;20448;-71
2022/05/19 11:32:04;;;;;;;1999.90;999.90;;;29.60;75.80;;;;;;4983746;28;20591;-70
2022/05/19 11:34:38;;;;;;;1999.90;999.90;;;29.60;76.30;;;;;;4989627;28;20468;-71
2022/05/19 11:37:19;;;;;;;1999.90;999.90;;;29.40;75.10;;;;;;4989816;28;20524;-70
2022/05/19 11:40:04;;;;;;;1999.90;999.90;;;29.50;75.50;;;;;;4990691;28;20481;-71
2022/05/19 11:42:40;;;;;;;1999.90;999.90;;;29.80;75.40;;;;;;4988724;28;20508;-70
2022/05/19 11:45:10;;;;;;;1999.90;999.90;;;29.50;74.60;;;;;;4990676;28;20991;-71
2022/05/19 11:56:19;;;;;;;1999.90;999.90;;;29.60;76.10;;;;;;4982852;28;20469;-71
2022/05/19 11:58:46;;;;;;;1999.90;999.90;;;29.60;77.10;;;;;;4984664;28;20477;-71
2022/05/19 12:01:21;;;;;;;1999.90;999.90;;;29.90;76.50;;;;;;4986434;28;20551;-71
2022/05/19 12:04:01;;;;;;;1999.90;999.90;;;30.00;77.80;;;;;;4989965;28;20562;-70
2022/05/19 12:06:30;;;;;;;1999.90;999.90;;;30.00;77.40;;;;;;4991023;28;20515;-70
2022/05/19 12:09:01;;;;;;;1999.90;999.90;;;29.80;76.60;;;;;;4989175;28;20469;-70
2022/05/19 12:11:50;;;;;;;1999.90;999.90;;;29.70;77.30;;;;;;4992121;28;20425;-70
2022/05/19 12:14:23;;;;;;;1999.90;999.90;;;29.90;76.40;;;;;;4984431;28;20468;-71
2022/05/19 12:16:55;;;;;;;1999.90;999.90;;;29.70;74.80;;;;;;4986645;28;20552;-70
2022/05/19 12:19:34;;;;;;;1999.90;999.90;;;29.40;75.40;;;;;;4985913;28;20465;-70
2022/05/19 12:22:03;;;;;;;1999.90;999.90;;;29.40;75.90;;;;;;4985735;28;20930;-71
2022/05/19 12:24:35;;;;;;;1999.90;999.90;;;29.70;76.40;;;;;;4984656;28;21031;-74
2022/05/19 12:27:12;;;;;;;1999.90;999.90;;;29.90;75.10;;;;;;4985199;28;20899;-70
2022/05/19 12:29:43;;;;;;;1999.90;999.90;;;30.00;75.30;;;;;;4985589;28;20468;-68
2022/05/19 12:32:26;;;;;;;1999.90;999.90;;;30.30;74.10;;;;;;4991906;28;20481;-69
2022/05/19 12:35:00;;;;;;;1999.90;999.90;;;30.20;73.60;;;;;;4985729;28;20444;-70
2022/05/19 12:37:39;;;;;;;1999.90;999.90;;;29.90;74.00;;;;;;4990589;28;20460;-70
2022/05/19 12:40:23;;;;;;;1999.90;999.90;;;30.00;76.10;;;;;;4987123;28;20474;-70
2022/05/19 12:43:07;;;;;;;1999.90;999.90;;;30.20;76.70;;;;;;4986965;28;20536;-70
2022/05/19 12:45:42;;;;;;;1999.90;999.90;;;30.40;76.60;;;;;;4985283;28;20550;-70